createdAt,value
2022-12-12T00:00:18.678Z,12.50
2022-12-12T00:02:45.314Z,10.65
2022-12-12T00:05:14.987Z,10.50
2022-12-12T00:07:41.601Z,9.82
2022-12-12T00:10:08.560Z,9.25
2022-12-12T00:12:35.425Z,9.25
2022-12-12T00:15:01.809Z,8.93
2022-12-12T00:17:28.268Z,9.05
2022-12-12T00:19:54.791Z,7.72
2022-12-12T00:22:21.280Z,8.98
2022-12-12T00:24:47.741Z,7.97
2022-12-12T00:27:14.163Z,8.88
2022-12-12T00:29:40.875Z,8.18
2022-12-12T00:32:07.254Z,9.32
2022-12-12T00:34:33.633Z,8.93
2022-12-12T00:37:00.017Z,8.13
2022-12-12T00:39:26.398Z,8.70
2022-12-12T00:41:54.509Z,9.23
2022-12-12T00:44:21.033Z,8.77
2022-12-12T00:46:47.447Z,8.68
2022-12-12T00:49:14.518Z,8.55
2022-12-12T00:51:40.901Z,8.07
2022-12-12T00:54:07.304Z,9.23
2022-12-12T00:56:33.743Z,8.95
2022-12-12T00:59:01.404Z,9.23
2022-12-12T01:01:28.778Z,9.18
2022-12-12T01:03:55.273Z,10.57
2022-12-12T01:06:21.934Z,9.00
2022-12-12T01:08:48.412Z,9.20
2022-12-12T01:11:15.142Z,8.98
2022-12-12T01:13:42.542Z,9.32
2022-12-12T01:16:09.509Z,9.30
2022-12-12T01:18:36.695Z,9.68
2022-12-12T01:21:03.726Z,8.10
2022-12-12T01:23:30.254Z,9.05
2022-12-12T01:26:00.687Z,9.30
2022-12-12T01:28:27.127Z,9.50
2022-12-12T01:30:53.541Z,10.10
2022-12-12T01:33:20.298Z,8.80
2022-12-12T01:35:46.805Z,8.88
2022-12-12T01:38:13.498Z,9.80
2022-12-12T01:40:39.874Z,8.55
2022-12-12T01:43:10.648Z,9.73
2022-12-12T01:46:09.716Z,9.82
2022-12-12T01:48:39.544Z,10.75
2022-12-12T01:51:08.258Z,9.40
2022-12-12T01:53:34.781Z,9.55
2022-12-12T01:56:02.382Z,10.63
2022-12-12T01:58:30.174Z,10.80
2022-12-12T02:00:56.610Z,11.65
2022-12-12T02:03:23.158Z,9.57
2022-12-12T02:05:53.204Z,10.50
2022-12-12T02:08:21.983Z,11.90
2022-12-12T02:10:48.592Z,11.05
2022-12-12T02:13:16.839Z,11.85
2022-12-12T02:15:43.211Z,11.05
2022-12-12T02:18:12.652Z,11.82
2022-12-12T02:20:45.648Z,10.82
2022-12-12T02:23:14.995Z,11.85
2022-12-12T02:26:07.685Z,12.57
2022-12-12T02:28:43.843Z,11.80
2022-12-12T02:31:29.138Z,12.45
2022-12-12T02:33:59.483Z,11.30
2022-12-12T02:36:29.591Z,11.68
2022-12-12T02:39:02.136Z,11.40
2022-12-12T02:41:37.557Z,11.97
2022-12-12T02:44:03.914Z,12.07
2022-12-12T02:46:38.117Z,13.32
2022-12-12T02:51:32.317Z,12.75
2022-12-12T02:53:59.704Z,12.15
2022-12-12T02:56:44.908Z,13.82
2022-12-12T02:59:17.168Z,13.48
2022-12-12T03:01:46.321Z,12.85
2022-12-12T03:04:48.226Z,13.70
2022-12-12T03:07:39.837Z,15.48
2022-12-12T03:10:16.576Z,14.27
2022-12-12T03:12:48.715Z,15.55
2022-12-12T03:15:18.363Z,14.52
2022-12-12T03:17:48.396Z,14.90
2022-12-12T03:20:17.866Z,15.55
2022-12-12T03:22:44.232Z,16.95
2022-12-12T03:25:23.403Z,15.68
2022-12-12T03:28:01.125Z,15.10
2022-12-12T03:30:29.893Z,15.10
2022-12-12T03:32:59.489Z,16.05
2022-12-12T03:35:32.271Z,13.98
2022-12-12T03:38:02.100Z,14.23
2022-12-12T03:40:31.503Z,14.85
2022-12-12T03:43:13.298Z,16.17
2022-12-12T03:45:45.102Z,14.77
2022-12-12T03:48:20.129Z,15.77
2022-12-12T03:50:55.437Z,15.15
2022-12-12T03:53:32.799Z,15.75
2022-12-12T03:56:05.913Z,16.65
2022-12-12T03:58:35.549Z,16.70
2022-12-12T04:01:04.678Z,16.42
2022-12-12T04:03:40.205Z,17.90
2022-12-12T04:06:29.661Z,17.23
2022-12-12T04:09:17.465Z,16.40
2022-12-12T04:12:13.007Z,16.45
2022-12-12T04:14:41.842Z,13.55
2022-12-12T04:17:13.427Z,14.50
2022-12-12T04:20:01.320Z,15.20
2022-12-12T04:22:49.398Z,19.35
2022-12-12T04:25:31.980Z,19.52
2022-12-12T04:28:01.737Z,15.52
2022-12-12T04:30:29.825Z,16.42
2022-12-12T04:33:08.731Z,15.25
2022-12-12T04:35:36.967Z,13.38
2022-12-12T04:38:05.397Z,12.75
2022-12-12T04:40:36.215Z,11.52
2022-12-12T04:43:04.438Z,11.45
2022-12-12T04:45:34.312Z,14.93
2022-12-12T04:48:01.886Z,12.43
2022-12-12T04:50:29.511Z,14.65
2022-12-12T04:52:56.862Z,13.43
2022-12-12T04:55:34.064Z,13.63
2022-12-12T04:58:01.794Z,13.20
2022-12-12T05:03:20.094Z,13.77
2022-12-12T05:05:57.957Z,14.98
2022-12-12T05:08:29.900Z,15.20
2022-12-12T05:10:57.319Z,14.68
2022-12-12T05:13:27.285Z,16.67
2022-12-12T05:15:55.359Z,14.98
2022-12-12T05:18:22.065Z,16.67
2022-12-12T05:20:48.706Z,16.33
2022-12-12T05:23:15.088Z,16.05
2022-12-12T05:25:41.570Z,16.77
2022-12-12T05:28:08.061Z,15.35
2022-12-12T05:30:34.734Z,13.45
2022-12-12T05:33:01.165Z,12.18
2022-12-12T05:35:27.877Z,12.15
2022-12-12T05:37:54.635Z,13.18
2022-12-12T05:40:21.882Z,12.80
2022-12-12T05:42:48.756Z,11.73
2022-12-12T05:45:15.481Z,11.40
2022-12-12T05:47:42.064Z,11.25
2022-12-12T05:50:08.662Z,8.82
2022-12-12T05:52:35.114Z,10.00
2022-12-12T05:55:01.471Z,9.30
2022-12-12T05:57:27.892Z,9.32
2022-12-12T05:59:54.270Z,9.18
2022-12-12T06:02:20.814Z,9.23
2022-12-12T06:04:47.388Z,9.85
2022-12-12T06:07:13.773Z,10.50
2022-12-12T06:09:40.345Z,10.38
2022-12-12T06:12:07.756Z,10.70
2022-12-12T06:14:34.256Z,9.52
2022-12-12T06:17:00.738Z,10.45
2022-12-12T06:19:27.135Z,8.93
2022-12-12T06:21:53.622Z,10.27
2022-12-12T06:24:20.085Z,9.82
2022-12-12T06:26:46.465Z,9.35
2022-12-12T06:29:14.730Z,9.48
2022-12-12T06:31:41.234Z,9.43
2022-12-12T06:34:07.661Z,10.23
2022-12-12T06:36:34.091Z,11.95
2022-12-12T06:39:01.057Z,12.98
2022-12-12T06:41:29.150Z,12.95
2022-12-12T06:43:55.910Z,12.70
2022-12-12T06:46:23.886Z,12.25
2022-12-12T06:48:50.419Z,12.27
2022-12-12T06:51:19.189Z,10.77
2022-12-12T06:53:45.760Z,10.13
2022-12-12T06:56:14.003Z,11.77
2022-12-12T06:58:40.482Z,11.07
2022-12-12T07:01:07.533Z,10.75
2022-12-12T07:03:34.009Z,11.10
2022-12-12T07:06:00.830Z,10.02
2022-12-12T07:08:28.310Z,10.07
2022-12-12T07:10:55.218Z,10.07
2022-12-12T07:13:21.959Z,10.43
2022-12-12T07:15:49.828Z,10.48
2022-12-12T07:18:17.221Z,12.18
2022-12-12T07:20:44.266Z,12.88
2022-12-12T07:23:11.039Z,12.02
2022-12-12T07:25:38.668Z,11.65
2022-12-12T07:28:05.346Z,11.82
2022-12-12T07:30:31.899Z,11.55
2022-12-12T07:32:58.350Z,13.45
2022-12-12T07:35:32.738Z,13.88
2022-12-12T07:37:59.306Z,13.52
2022-12-12T07:40:25.773Z,13.18
2022-12-12T07:42:52.207Z,14.40
2022-12-12T07:45:18.897Z,14.02
2022-12-12T07:47:45.497Z,13.88
2022-12-12T07:50:12.263Z,13.98
2022-12-12T07:52:38.696Z,12.18
2022-12-12T07:55:05.344Z,12.60
2022-12-12T07:57:33.391Z,13.27
2022-12-12T08:00:00.160Z,13.88
2022-12-12T08:02:26.541Z,14.73
2022-12-12T08:04:53.039Z,13.05
2022-12-12T08:07:19.445Z,16.50
2022-12-12T08:09:45.949Z,16.38
2022-12-12T08:12:12.337Z,13.35
2022-12-12T08:14:39.033Z,13.93
2022-12-12T08:17:05.453Z,13.32
2022-12-12T08:19:32.236Z,14.52
2022-12-12T08:21:58.855Z,13.07
2022-12-12T08:24:25.488Z,12.90
2022-12-12T08:26:52.378Z,12.57
2022-12-12T08:29:18.789Z,11.68
2022-12-12T08:31:45.515Z,12.18
2022-12-12T08:34:12.195Z,11.85
2022-12-12T08:36:38.575Z,11.98
2022-12-12T08:39:04.890Z,11.52
2022-12-12T08:41:31.477Z,11.70
2022-12-12T08:43:57.827Z,11.95
2022-12-12T08:46:24.208Z,11.95
2022-12-12T08:48:50.661Z,11.93
2022-12-12T08:51:17.498Z,13.45
2022-12-12T08:53:45.094Z,13.85
2022-12-12T08:56:11.587Z,12.25
2022-12-12T08:58:37.954Z,14.35
2022-12-12T09:01:09.749Z,14.75
2022-12-12T09:03:36.110Z,13.18
2022-12-12T09:06:02.520Z,14.10
2022-12-12T09:08:29.018Z,13.50
2022-12-12T09:10:55.570Z,14.98
2022-12-12T09:13:22.168Z,13.15
2022-12-12T09:15:53.617Z,12.93
2022-12-12T09:18:20.167Z,14.45
2022-12-12T09:20:50.354Z,13.55
2022-12-12T09:23:17.646Z,14.20
2022-12-12T09:25:44.119Z,14.70
2022-12-12T09:28:11.438Z,15.40
2022-12-12T09:30:38.462Z,14.70
2022-12-12T09:33:05.252Z,15.70
2022-12-12T09:35:31.762Z,12.73
2022-12-12T09:37:58.185Z,13.52
2022-12-12T09:40:31.875Z,12.95
2022-12-12T09:43:00.090Z,13.90
2022-12-12T09:45:26.933Z,14.55
2022-12-12T09:47:57.022Z,15.25
2022-12-12T09:50:27.474Z,12.30
2022-12-12T09:52:55.478Z,12.43
2022-12-12T09:55:34.070Z,14.18
2022-12-12T09:58:19.417Z,13.20
2022-12-12T10:00:51.764Z,14.30
2022-12-12T10:03:22.562Z,14.75
2022-12-12T10:06:13.608Z,18.10
2022-12-12T10:08:43.294Z,14.30
2022-12-12T10:11:33.030Z,14.88
2022-12-12T10:14:00.628Z,14.93
2022-12-12T10:16:28.654Z,15.00
2022-12-12T10:18:59.016Z,16.33
2022-12-12T10:21:27.619Z,14.70
2022-12-12T10:24:13.594Z,14.50
2022-12-12T10:26:42.824Z,15.18
2022-12-12T10:29:11.173Z,14.80
2022-12-12T10:31:40.688Z,14.10
2022-12-12T10:34:19.647Z,15.05
2022-12-12T10:37:01.091Z,17.13
2022-12-12T10:39:34.733Z,15.43
2022-12-12T10:42:13.973Z,15.07
2022-12-12T10:44:47.241Z,14.88
2022-12-12T10:47:14.411Z,14.75
2022-12-12T10:49:42.108Z,15.60
2022-12-12T10:52:26.671Z,16.88
2022-12-12T10:57:24.666Z,15.73
2022-12-12T10:59:52.855Z,16.48
2022-12-12T11:02:27.881Z,15.27
2022-12-12T11:04:58.205Z,16.23
2022-12-12T11:07:24.850Z,14.50
2022-12-12T11:09:51.222Z,16.05
2022-12-12T11:12:17.609Z,13.98
2022-12-12T11:14:51.841Z,16.35
2022-12-12T11:19:45.526Z,15.18
2022-12-12T11:22:14.491Z,15.55
2022-12-12T11:24:45.143Z,15.05
2022-12-12T11:27:20.709Z,16.45
2022-12-12T11:29:49.086Z,15.00
2022-12-12T11:32:27.094Z,14.88
2022-12-12T11:34:55.754Z,14.10
2022-12-12T11:37:24.587Z,16.42
2022-12-12T11:39:51.985Z,14.52
2022-12-12T11:42:18.369Z,15.27
2022-12-12T11:44:45.304Z,15.20
2022-12-12T11:47:28.640Z,17.20
2022-12-12T11:49:59.579Z,15.02
2022-12-12T11:52:27.428Z,14.45
2022-12-12T11:54:54.664Z,15.05
2022-12-12T11:57:28.607Z,14.77
2022-12-12T12:00:05.994Z,15.05
2022-12-12T12:02:39.568Z,15.27
2022-12-12T12:05:16.448Z,16.23
2022-12-12T12:07:54.421Z,15.80
2022-12-12T12:10:41.367Z,15.75
2022-12-12T12:13:15.822Z,14.20
2022-12-12T12:15:51.451Z,15.02
2022-12-12T12:18:28.026Z,14.20
2022-12-12T12:21:13.813Z,13.90
2022-12-12T12:23:52.161Z,15.02
2022-12-12T12:26:37.375Z,14.57
2022-12-12T12:29:04.308Z,14.35
2022-12-12T12:31:31.545Z,15.73
2022-12-12T12:34:08.600Z,15.05
2022-12-12T12:36:40.127Z,15.52
2022-12-12T12:39:15.223Z,15.32
2022-12-12T12:41:55.015Z,13.90
2022-12-12T12:44:35.760Z,14.77
2022-12-12T12:47:19.058Z,15.90
2022-12-12T12:49:57.489Z,13.52
2022-12-12T12:52:34.382Z,13.38
2022-12-12T12:55:00.954Z,13.68
2022-12-12T12:57:32.946Z,14.43
2022-12-12T13:00:03.477Z,13.85
2022-12-12T13:02:35.783Z,14.15
2022-12-12T13:05:07.108Z,14.02
2022-12-12T13:07:41.232Z,15.40
2022-12-12T13:10:21.641Z,14.07
2022-12-12T13:12:52.641Z,14.82
2022-12-12T13:15:25.448Z,14.00
2022-12-12T13:17:57.851Z,13.27
2022-12-12T13:20:25.779Z,13.90
2022-12-12T13:23:10.974Z,12.93
2022-12-12T13:25:43.158Z,12.30
2022-12-12T13:28:15.599Z,13.02
2022-12-12T13:30:51.139Z,11.48
2022-12-12T13:33:32.766Z,11.02
2022-12-12T13:36:07.430Z,10.70
2022-12-12T13:38:34.421Z,9.98
2022-12-12T13:41:06.305Z,10.75
2022-12-12T13:43:38.882Z,10.77
2022-12-12T13:46:20.719Z,10.75
2022-12-12T13:48:49.574Z,10.93
2022-12-12T13:51:28.258Z,10.32
2022-12-12T13:54:12.256Z,10.85
2022-12-12T13:56:47.014Z,10.77
2022-12-12T13:59:14.563Z,12.13
2022-12-12T14:01:41.023Z,10.27
2022-12-12T14:04:44.490Z,11.05
2022-12-12T14:07:16.449Z,9.98
2022-12-12T14:09:49.316Z,11.38
2022-12-12T14:12:31.122Z,11.67
2022-12-12T14:14:58.836Z,12.55
2022-12-12T14:17:26.455Z,13.57
2022-12-12T14:19:54.389Z,12.32
2022-12-12T14:22:49.608Z,12.95
2022-12-12T14:25:17.204Z,11.82
2022-12-12T14:27:49.782Z,11.60
2022-12-12T14:30:33.460Z,12.05
2022-12-12T14:33:11.613Z,12.50
2022-12-12T14:35:51.366Z,12.85
2022-12-12T14:38:27.626Z,14.15
2022-12-12T14:40:57.081Z,12.88
2022-12-12T14:43:30.742Z,13.50
2022-12-12T14:45:58.611Z,12.73
2022-12-12T14:48:28.632Z,13.13
2022-12-12T14:50:57.525Z,12.88
2022-12-12T14:53:25.234Z,12.63
2022-12-12T14:55:52.995Z,12.20
2022-12-12T14:58:24.542Z,13.35
2022-12-12T15:00:52.590Z,12.73
2022-12-12T15:03:30.822Z,12.20
2022-12-12T15:06:15.962Z,11.60
2022-12-12T15:08:42.843Z,11.85
2022-12-12T15:11:16.504Z,10.57
2022-12-12T15:13:59.785Z,11.68
2022-12-12T15:16:32.242Z,10.73
2022-12-12T15:18:58.961Z,11.15
2022-12-12T15:21:25.479Z,11.23
2022-12-12T15:23:52.124Z,11.75
2022-12-12T15:26:22.256Z,11.73
2022-12-12T15:28:48.998Z,11.05
2022-12-12T15:31:19.715Z,11.45
2022-12-12T15:33:47.321Z,11.80
2022-12-12T15:36:18.126Z,12.20
2022-12-12T15:38:45.393Z,10.45
2022-12-12T15:41:13.707Z,11.27
2022-12-12T15:43:41.087Z,10.07
2022-12-12T15:46:14.835Z,11.38
2022-12-12T15:48:42.377Z,12.52
2022-12-12T15:51:10.063Z,15.45
2022-12-12T15:53:40.621Z,20.30
2022-12-12T15:56:07.139Z,10.02
2022-12-12T15:58:38.400Z,10.48
2022-12-12T16:01:19.901Z,10.57
2022-12-12T16:04:14.146Z,10.05
2022-12-12T16:06:44.613Z,9.25
2022-12-12T16:09:10.968Z,10.60
2022-12-12T16:11:41.208Z,16.38
2022-12-12T16:14:27.485Z,11.80
2022-12-12T16:16:58.676Z,11.60
2022-12-12T16:19:43.439Z,11.10
2022-12-12T16:22:15.942Z,12.18
2022-12-12T16:24:47.212Z,11.55
2022-12-12T16:27:13.606Z,11.20
2022-12-12T16:29:40.015Z,11.10
2022-12-12T16:32:06.514Z,11.93
2022-12-12T16:34:32.973Z,11.75
2022-12-12T16:36:59.360Z,12.13
2022-12-12T16:39:25.800Z,12.30
2022-12-12T16:41:52.227Z,11.68
2022-12-12T16:44:18.598Z,11.95
2022-12-12T16:46:45.053Z,12.63
2022-12-12T16:49:15.274Z,12.52
2022-12-12T16:51:42.242Z,13.27
2022-12-12T16:54:14.667Z,13.57
2022-12-12T16:56:41.242Z,13.32
2022-12-12T16:59:07.655Z,12.48
2022-12-12T17:01:38.698Z,14.25
2022-12-12T17:04:06.807Z,13.82
2022-12-12T17:06:33.339Z,14.07
2022-12-12T17:08:59.719Z,13.45
2022-12-12T17:11:26.243Z,14.68
2022-12-12T17:13:52.684Z,15.30
2022-12-12T17:16:24.175Z,15.13
2022-12-12T17:18:53.842Z,15.32
2022-12-12T17:21:20.280Z,14.25
2022-12-12T17:23:46.641Z,13.43
2022-12-12T17:26:13.274Z,13.25
2022-12-12T17:28:39.781Z,13.60
2022-12-12T17:31:09.477Z,19.35
2022-12-12T17:33:45.803Z,15.80
2022-12-12T17:36:16.593Z,14.13
2022-12-12T17:38:43.027Z,15.07
2022-12-12T17:41:10.702Z,12.13
2022-12-12T17:43:37.583Z,12.98
2022-12-12T17:46:09.507Z,14.23
2022-12-12T17:48:36.678Z,12.98
2022-12-12T17:51:04.715Z,13.05
2022-12-12T17:53:38.562Z,13.65
2022-12-12T17:56:08.295Z,14.00
2022-12-12T17:58:39.181Z,12.85
2022-12-12T18:01:19.525Z,14.15
2022-12-12T18:03:46.105Z,15.05
2022-12-12T18:06:13.035Z,14.65
2022-12-12T18:08:39.956Z,16.77
2022-12-12T18:11:10.659Z,14.75
2022-12-12T18:13:38.687Z,16.17
2022-12-12T18:16:06.079Z,15.25
2022-12-12T18:18:33.118Z,15.32
2022-12-12T18:21:03.966Z,14.23
2022-12-12T18:23:30.802Z,18.17
2022-12-12T18:26:01.487Z,16.33
2022-12-12T18:28:27.935Z,16.27
2022-12-12T18:30:54.341Z,17.45
2022-12-12T18:33:20.814Z,17.50
2022-12-12T18:35:47.227Z,17.85
2022-12-12T18:38:13.766Z,18.27
2022-12-12T18:40:40.308Z,16.25
2022-12-12T18:43:06.970Z,16.88
2022-12-12T18:45:37.264Z,16.92
2022-12-12T18:48:03.758Z,20.35
2022-12-12T18:50:30.287Z,18.42
2022-12-12T18:52:58.666Z,18.52
2022-12-12T18:55:29.890Z,18.77
2022-12-12T18:57:57.097Z,18.73
2022-12-12T19:00:24.252Z,17.50
2022-12-12T19:02:50.853Z,18.52
2022-12-12T19:05:17.373Z,17.75
2022-12-12T19:07:44.104Z,18.65
2022-12-12T19:10:10.478Z,18.70
2022-12-12T19:12:37.277Z,21.20
2022-12-12T19:15:19.705Z,18.33
2022-12-12T19:17:46.196Z,16.67
2022-12-12T19:20:13.022Z,17.20
2022-12-12T19:22:45.330Z,15.55
2022-12-12T19:25:13.362Z,16.30
2022-12-12T19:27:39.842Z,17.92
2022-12-12T19:30:06.597Z,15.95
2022-12-12T19:32:32.989Z,16.85
2022-12-12T19:34:59.854Z,18.25
2022-12-12T19:37:26.282Z,16.80
2022-12-12T19:39:53.202Z,16.80
2022-12-12T19:42:19.932Z,17.30
2022-12-12T19:44:46.300Z,16.73
2022-12-12T19:47:13.293Z,18.35
2022-12-12T19:49:39.917Z,27.15
2022-12-12T19:52:12.176Z,20.33
2022-12-12T19:54:40.528Z,18.63
2022-12-12T19:57:06.908Z,18.42
2022-12-12T19:59:33.417Z,19.10
2022-12-12T20:02:01.063Z,17.25
2022-12-12T20:04:30.042Z,18.20
2022-12-12T20:06:57.001Z,17.60
2022-12-12T20:09:24.442Z,17.70
2022-12-12T20:11:50.925Z,16.60
2022-12-12T20:14:18.744Z,16.77
2022-12-12T20:16:45.118Z,15.85
2022-12-12T20:19:12.083Z,23.15
2022-12-12T20:24:26.592Z,21.88
2022-12-12T20:26:55.137Z,19.45
2022-12-12T20:29:22.331Z,18.17
2022-12-12T20:31:49.714Z,18.35
2022-12-12T20:34:17.225Z,16.13
2022-12-12T20:36:44.215Z,15.93
2022-12-12T20:39:12.263Z,20.05
2022-12-12T20:41:39.502Z,18.70
2022-12-12T20:44:06.633Z,20.88
2022-12-12T20:46:34.187Z,19.15
2022-12-12T20:49:02.049Z,19.08
2022-12-12T20:51:54.570Z,17.42
2022-12-12T20:54:17.278Z,17.83
2022-12-12T20:56:46.353Z,17.67
2022-12-12T20:59:14.286Z,18.05
2022-12-12T21:01:40.907Z,17.75
2022-12-12T21:04:09.276Z,18.92
2022-12-12T21:06:37.086Z,18.80
2022-12-12T21:09:04.793Z,19.00
2022-12-12T21:11:32.074Z,18.45
2022-12-12T21:13:58.468Z,20.30
2022-12-12T21:16:27.347Z,18.95
2022-12-12T21:18:55.082Z,22.38
2022-12-12T21:21:21.786Z,19.00
2022-12-12T21:23:49.416Z,16.98
2022-12-12T21:26:20.531Z,17.98
2022-12-12T21:28:49.413Z,17.63
2022-12-12T21:31:17.880Z,16.90
2022-12-12T21:33:44.827Z,17.38
2022-12-12T21:36:12.747Z,17.85
2022-12-12T21:38:39.613Z,18.23
2022-12-12T21:41:13.209Z,17.20
2022-12-12T21:43:40.163Z,19.63
2022-12-12T21:46:08.940Z,18.08
2022-12-12T21:48:35.386Z,27.08
2022-12-12T21:51:04.980Z,23.67
2022-12-12T21:53:34.749Z,18.85
2022-12-12T21:56:03.552Z,20.00
2022-12-12T21:58:29.941Z,19.38
2022-12-12T22:00:56.360Z,17.25
2022-12-12T22:03:22.872Z,18.63
2022-12-12T22:05:49.297Z,18.30
2022-12-12T22:08:15.953Z,17.75
2022-12-12T22:10:42.326Z,17.52
2022-12-12T22:13:08.762Z,18.15
2022-12-12T22:15:35.201Z,17.48
2022-12-12T22:18:01.550Z,16.92
2022-12-12T22:20:28.053Z,17.60
2022-12-12T22:22:54.537Z,17.52
2022-12-12T22:25:20.985Z,18.90
2022-12-12T22:27:47.316Z,18.25
2022-12-12T22:30:13.840Z,16.60
2022-12-12T22:32:41.516Z,17.23
2022-12-12T22:35:09.653Z,17.52
2022-12-12T22:37:36.039Z,17.25
2022-12-12T22:40:02.503Z,17.63
2022-12-12T22:42:28.976Z,15.73
2022-12-12T22:44:55.402Z,16.00
2022-12-12T22:47:23.706Z,15.52
2022-12-12T22:49:50.262Z,16.20
2022-12-12T22:52:16.642Z,14.70
2022-12-12T22:54:43.008Z,16.48
2022-12-12T22:57:09.440Z,15.25
2022-12-12T22:59:35.974Z,14.88
2022-12-12T23:02:02.327Z,14.68
2022-12-12T23:04:29.174Z,15.82
2022-12-12T23:06:55.695Z,14.90
2022-12-12T23:09:22.941Z,15.90
2022-12-12T23:11:49.471Z,14.85
2022-12-12T23:14:17.209Z,15.13
2022-12-12T23:16:43.877Z,15.23
2022-12-12T23:19:11.420Z,14.25
2022-12-12T23:21:38.160Z,16.45
2022-12-12T23:24:04.984Z,15.68
2022-12-12T23:26:31.991Z,16.45
2022-12-12T23:28:58.996Z,15.85
2022-12-12T23:31:29.931Z,14.80
2022-12-12T23:33:57.662Z,16.50
2022-12-12T23:36:24.284Z,15.68
2022-12-12T23:38:57.101Z,15.75
2022-12-12T23:41:23.657Z,15.10
2022-12-12T23:43:50.866Z,15.68
2022-12-12T23:46:29.481Z,15.32
2022-12-12T23:48:57.194Z,15.18
2022-12-12T23:51:24.252Z,15.05
2022-12-12T23:53:50.751Z,14.52
2022-12-12T23:56:17.442Z,15.60
2022-12-12T23:58:43.900Z,14.73
